Time;durP1;ratioP1;P1;durP2;ratioP2;P2;SDS_P1;SDS_P2;PMS_P1;PMS_P2;Temp;Humidity;BMP_temperature;BMP_pressure;BME280_temperature;BME280_humidity;BME280_pressure;Samples;Min_cycle;Max_cycle;Signal;HPM_P1;HPM_P2
2023/10/16 00:02:12;;;;;;;3.75;0.60;;;7.40;99.90;;;;;;5051468;28;20124;-81
2023/10/16 00:04:43;;;;;;;2.05;0.57;;;7.40;99.90;;;;;;5051587;28;20163;-82
2023/10/16 00:07:11;;;;;;;2.33;0.73;;;7.40;99.90;;;;;;5050962;28;20048;-82
2023/10/16 00:09:39;;;;;;;2.65;0.80;;;7.30;99.90;;;;;;5051037;28;20053;-82
2023/10/16 00:12:05;;;;;;;3.40;0.70;;;7.40;99.90;;;;;;5034608;28;20040;-81
2023/10/16 00:14:31;;;;;;;4.45;1.13;;;7.40;99.90;;;;;;5051006;28;20040;-82
2023/10/16 00:16:57;;;;;;;5.57;0.88;;;7.40;99.90;;;;;;5051349;28;20056;-81
2023/10/16 00:19:25;;;;;;;2.22;0.70;;;7.40;99.90;;;;;;5051104;28;20386;-81
2023/10/16 00:21:52;;;;;;;2.05;0.75;;;7.40;99.90;;;;;;5051027;28;20068;-81
2023/10/16 00:24:18;;;;;;;2.88;0.73;;;7.40;99.90;;;;;;5034979;28;20033;-81
2023/10/16 00:26:50;;;;;;;3.13;0.70;;;7.40;99.90;;;;;;5051172;28;20079;-82
2023/10/16 00:29:22;;;;;;;2.50;0.60;;;7.40;99.90;;;;;;5034246;28;20141;-82
2023/10/16 00:31:51;;;;;;;3.30;0.93;;;7.40;99.90;;;;;;5050899;28;20037;-82
2023/10/16 00:34:20;;;;;;;3.60;0.70;;;7.40;99.90;;;;;;5050844;28;20435;-82
2023/10/16 00:36:55;;;;;;;4.03;0.70;;;7.40;99.90;;;;;;5050562;28;20091;-82
2023/10/16 00:39:22;;;;;;;1.40;0.60;;;7.40;99.90;;;;;;5050341;28;20041;-82
2023/10/16 00:41:50;;;;;;;3.67;0.80;;;7.40;99.90;;;;;;5050846;28;20412;-82
2023/10/16 00:44:17;;;;;;;3.58;1.05;;;7.40;99.90;;;;;;5050691;28;20496;-81
2023/10/16 00:46:50;;;;;;;2.25;0.60;;;7.30;99.90;;;;;;5050916;28;20048;-82
2023/10/16 00:49:18;;;;;;;1.80;0.50;;;7.30;99.90;;;;;;5050550;28;20033;-81
2023/10/16 00:51:45;;;;;;;1.95;0.80;;;7.30;99.90;;;;;;5050427;28;20116;-81
2023/10/16 00:54:18;;;;;;;3.50;0.90;;;7.30;99.90;;;;;;5034234;28;20124;-81
2023/10/16 00:56:50;;;;;;;2.25;0.82;;;7.30;99.90;;;;;;5051054;28;20128;-82
2023/10/16 00:59:16;;;;;;;6.15;0.80;;;7.30;99.90;;;;;;5050572;28;20512;-81
2023/10/16 01:01:46;;;;;;;2.35;0.60;;;7.20;99.90;;;;;;5051118;28;20107;-82
2023/10/16 01:04:13;;;;;;;1.83;0.82;;;7.20;99.90;;;;;;5054827;28;20033;-81
2023/10/16 01:06:41;;;;;;;3.00;0.65;;;7.20;99.90;;;;;;5054763;28;20090;-82
2023/10/16 01:09:22;;;;;;;3.58;0.55;;;7.20;99.90;;;;;;5054407;28;20523;-81
2023/10/16 01:11:48;;;;;;;4.97;0.80;;;7.20;99.90;;;;;;5054670;28;20048;-82
2023/10/16 01:14:14;;;;;;;2.50;0.73;;;7.30;99.90;;;;;;5037664;28;20174;-81
2023/10/16 01:16:40;;;;;;;3.47;0.73;;;7.20;99.90;;;;;;5054841;28;20098;-82
2023/10/16 01:19:09;;;;;;;2.58;0.57;;;7.20;99.90;;;;;;5054713;28;20044;-81
2023/10/16 01:21:35;;;;;;;5.80;0.70;;;7.10;99.90;;;;;;5054707;28;20079;-82
2023/10/16 01:24:12;;;;;;;3.20;0.60;;;7.10;99.90;;;;;;5054204;28;20435;-81
2023/10/16 01:26:38;;;;;;;3.25;1.08;;;7.10;99.90;;;;;;5054321;28;20045;-80
2023/10/16 01:29:07;;;;;;;3.42;0.70;;;7.10;99.90;;;;;;5053649;28;20075;-82
2023/10/16 01:31:33;;;;;;;1.50;0.57;;;7.10;99.90;;;;;;5038293;28;20045;-81
2023/10/16 01:33:59;;;;;;;8.45;0.90;;;7.10;99.90;;;;;;5053955;28;20512;-82
2023/10/16 01:36:25;;;;;;;1.35;0.70;;;7.10;99.90;;;;;;5053909;28;20107;-82
2023/10/16 01:38:51;;;;;;;4.97;0.50;;;7.20;99.90;;;;;;5053740;28;20087;-82
2023/10/16 01:41:18;;;;;;;6.72;1.00;;;7.20;99.90;;;;;;5054169;28;20040;-82
2023/10/16 01:43:44;;;;;;;4.40;0.90;;;7.20;99.90;;;;;;5053896;28;20048;-82
2023/10/16 01:46:12;;;;;;;4.55;0.93;;;7.20;99.90;;;;;;5053613;28;20040;-81
2023/10/16 01:48:44;;;;;;;1.15;0.55;;;7.20;99.90;;;;;;5053844;28;20033;-82
2023/10/16 01:51:11;;;;;;;2.33;0.80;;;7.20;99.90;;;;;;5053648;28;20037;-82
2023/10/16 01:53:39;;;;;;;3.08;0.68;;;7.20;99.90;;;;;;5053801;28;20084;-82
2023/10/16 01:56:14;;;;;;;1.83;0.65;;;7.10;99.90;;;;;;5053527;28;20033;-81
2023/10/16 01:58:45;;;;;;;3.60;0.80;;;7.10;99.90;;;;;;5053902;28;20037;-81
2023/10/16 02:01:12;;;;;;;1.08;0.40;;;7.10;99.90;;;;;;5036810;28;20041;-82
2023/10/16 02:03:38;;;;;;;3.50;0.82;;;7.00;99.90;;;;;;5053450;28;20111;-82
2023/10/16 02:06:04;;;;;;;1.88;0.57;;;7.00;99.90;;;;;;5053886;28;20130;-81
2023/10/16 02:08:30;;;;;;;3.33;0.57;;;7.00;99.90;;;;;;5053627;28;20041;-81
2023/10/16 02:10:57;;;;;;;3.30;0.75;;;7.00;99.90;;;;;;5054092;28;20036;-82
2023/10/16 02:13:23;;;;;;;4.30;0.68;;;7.10;99.90;;;;;;5053994;28;20480;-82
2023/10/16 02:15:48;;;;;;;4.05;0.80;;;7.10;99.90;;;;;;5053394;28;20060;-82
2023/10/16 02:18:22;;;;;;;3.20;0.77;;;7.10;99.90;;;;;;5053188;28;20072;-82
2023/10/16 02:20:49;;;;;;;3.63;0.80;;;7.20;99.90;;;;;;5053080;28;20045;-81
2023/10/16 02:23:15;;;;;;;1.90;0.70;;;7.20;99.90;;;;;;5053350;28;20049;-80
2023/10/16 02:25:41;;;;;;;3.67;1.15;;;7.20;99.90;;;;;;5053515;28;20048;-82
2023/10/16 02:28:08;;;;;;;3.58;1.08;;;7.30;99.90;;;;;;5052928;28;20037;-81
2023/10/16 02:30:41;;;;;;;2.63;0.75;;;7.30;99.90;;;;;;5052611;28;20047;-81
2023/10/16 02:33:14;;;;;;;4.25;0.82;;;7.30;99.90;;;;;;5052219;28;20047;-82
2023/10/16 02:35:47;;;;;;;4.07;0.88;;;7.30;99.90;;;;;;5036543;28;20033;-83
2023/10/16 02:38:14;;;;;;;3.22;1.00;;;7.30;99.90;;;;;;5052898;28;20051;-82
2023/10/16 02:40:41;;;;;;;3.88;0.82;;;7.30;99.90;;;;;;5052843;28;20037;-82
2023/10/16 02:43:13;;;;;;;3.70;0.80;;;7.30;99.90;;;;;;5052850;28;20036;-81
2023/10/16 02:45:43;;;;;;;2.78;1.00;;;7.30;99.90;;;;;;5053018;28;20041;-82
2023/10/16 02:48:11;;;;;;;1.90;0.77;;;7.30;99.90;;;;;;5052215;28;20512;-82
2023/10/16 02:50:39;;;;;;;5.50;1.10;;;7.20;99.90;;;;;;5052653;28;20508;-82
2023/10/16 02:53:08;;;;;;;4.80;0.98;;;7.20;99.90;;;;;;5035931;28;20037;-81
2023/10/16 02:55:33;;;;;;;4.57;0.98;;;7.20;99.90;;;;;;5052197;28;20039;-83
2023/10/16 02:58:04;;;;;;;4.18;1.15;;;7.20;99.90;;;;;;5050473;28;20556;-82
2023/10/16 03:00:38;;;;;;;3.95;1.10;;;7.20;99.90;;;;;;5052485;28;20072;-82
2023/10/16 03:03:09;;;;;;;2.75;0.80;;;7.30;99.90;;;;;;5052664;28;20051;-82
2023/10/16 03:05:35;;;;;;;4.22;1.15;;;7.20;99.90;;;;;;5052486;28;20055;-82
2023/10/16 03:08:00;;;;;;;5.93;1.10;;;7.30;99.90;;;;;;5052440;28;20040;-82
2023/10/16 03:10:26;;;;;;;4.72;0.90;;;7.30;99.90;;;;;;5051900;28;20032;-82
2023/10/16 03:12:52;;;;;;;3.08;0.98;;;7.30;99.90;;;;;;5052216;28;20065;-83
2023/10/16 03:15:27;;;;;;;3.55;0.80;;;7.30;99.90;;;;;;5052040;28;20562;-82
2023/10/16 03:17:54;;;;;;;3.55;1.10;;;7.40;99.90;;;;;;5052118;28;20051;-82
2023/10/16 03:20:22;;;;;;;2.78;0.85;;;7.40;99.90;;;;;;5052009;28;20083;-82
2023/10/16 03:22:50;;;;;;;2.63;1.10;;;7.40;99.90;;;;;;5051345;28;20045;-82
2023/10/16 03:25:27;;;;;;;2.55;0.90;;;7.40;99.90;;;;;;5050211;28;20123;-82
2023/10/16 03:27:55;;;;;;;4.47;0.88;;;7.50;99.90;;;;;;5051818;28;20123;-82
2023/10/16 03:30:25;;;;;;;5.65;1.23;;;7.50;99.90;;;;;;5034620;28;20033;-83
2023/10/16 03:32:53;;;;;;;4.60;1.20;;;7.50;99.90;;;;;;5051920;28;20041;-82
2023/10/16 03:35:20;;;;;;;2.97;0.98;;;7.50;99.90;;;;;;5052494;28;20450;-82
2023/10/16 03:37:49;;;;;;;3.47;1.10;;;7.60;99.90;;;;;;5051720;28;20056;-82
2023/10/16 03:40:14;;;;;;;3.47;0.93;;;7.60;99.90;;;;;;5051354;28;20036;-82
2023/10/16 03:42:40;;;;;;;4.53;1.00;;;7.60;99.90;;;;;;5051543;28;20466;-81
2023/10/16 03:45:09;;;;;;;5.45;1.02;;;7.60;99.90;;;;;;5052106;28;20144;-82
2023/10/16 03:47:34;;;;;;;3.53;0.90;;;7.60;99.90;;;;;;5051118;28;20124;-82
2023/10/16 03:50:00;;;;;;;2.08;0.70;;;7.60;99.90;;;;;;5034573;28;20068;-82
2023/10/16 03:52:28;;;;;;;5.68;1.10;;;7.60;99.90;;;;;;5051493;28;20044;-81
2023/10/16 03:54:53;;;;;;;3.83;0.98;;;7.60;99.90;;;;;;5034220;28;20432;-82
2023/10/16 03:57:20;;;;;;;3.38;0.95;;;7.60;99.90;;;;;;5049771;28;20106;-82
2023/10/16 03:59:47;;;;;;;3.10;1.00;;;7.80;99.90;;;;;;5050283;28;20076;-82
2023/10/16 04:02:23;;;;;;;4.50;0.98;;;7.60;99.90;;;;;;5033910;28;20048;-82
2023/10/16 04:04:53;;;;;;;7.70;1.02;;;7.60;99.90;;;;;;5050409;28;20056;-82
2023/10/16 04:07:19;;;;;;;4.35;1.10;;;7.60;99.90;;;;;;5033964;28;20076;-82
2023/10/16 04:09:50;;;;;;;4.70;1.20;;;7.60;99.90;;;;;;5050452;28;20084;-82
2023/10/16 04:12:21;;;;;;;4.82;1.05;;;7.60;99.90;;;;;;5050411;28;20086;-81
2023/10/16 04:14:55;;;;;;;3.35;1.27;;;7.60;99.90;;;;;;5050256;28;20042;-82
2023/10/16 04:17:25;;;;;;;4.45;1.15;;;7.60;99.90;;;;;;5050677;28;20124;-80
2023/10/16 04:19:53;;;;;;;5.15;1.23;;;7.60;99.90;;;;;;5050047;28;20079;-82
2023/10/16 04:22:25;;;;;;;2.40;1.10;;;7.60;99.90;;;;;;5050676;28;20557;-81
2023/10/16 04:24:54;;;;;;;8.80;1.20;;;7.50;99.90;;;;;;5051021;28;20045;-81
2023/10/16 04:29:46;;;;;;;3.67;1.02;;;7.40;99.90;;;;;;5050323;28;20048;-82
2023/10/16 04:35:03;;;;;;;4.40;1.20;;;7.30;99.90;;;;;;5050924;28;20478;-81
2023/10/16 04:37:40;;;;;;;5.07;1.10;;;7.30;99.90;;;;;;5032389;28;20488;-81
2023/10/16 04:58:28;;;;;;;4.45;1.10;;;6.90;99.90;;;;;;5050471;28;20048;-81
2023/10/16 05:17:21;;;;;;;;;;;6.90;99.90;;;;;;5051116;28;20045;-81
2023/10/16 05:19:53;;;;;;;1.95;1.08;;;6.90;99.90;;;;;;5050674;28;19916;-81
2023/10/16 06:14:09;;;;;;;3.80;1.23;;;6.90;99.90;;;;;;5050263;28;20052;-81
2023/10/16 06:14:34;;;;;;;3.97;1.30;;;7.00;99.90;;;;;;5056288;28;20344;-81
2023/10/16 06:17:00;;;;;;;5.93;1.70;;;7.00;99.90;;;;;;5056354;28;20037;-82
2023/10/16 06:19:26;;;;;;;2.38;1.35;;;7.10;99.90;;;;;;5057442;28;20460;-82
2023/10/16 06:22:17;;;;;;;5.18;1.50;;;7.10;99.90;;;;;;5056741;28;20037;-81
2023/10/16 06:24:46;;;;;;;4.88;1.75;;;7.10;99.90;;;;;;5055533;28;20497;-81
2023/10/16 06:27:18;;;;;;;3.78;1.25;;;7.20;99.90;;;;;;5054698;28;20595;-82
2023/10/16 06:29:50;;;;;;;8.13;2.03;;;7.20;99.90;;;;;;5052703;28;20052;-82
2023/10/16 06:32:26;;;;;;;3.65;1.40;;;7.30;99.90;;;;;;5052308;28;20068;-82
2023/10/16 06:34:57;;;;;;;4.03;1.30;;;7.30;99.90;;;;;;5052745;28;20040;-82
2023/10/16 06:37:24;;;;;;;5.95;1.50;;;7.40;99.90;;;;;;5052695;28;20515;-81
2023/10/16 06:39:54;;;;;;;6.43;1.58;;;7.40;99.90;;;;;;5053903;28;20045;-82
2023/10/16 06:42:23;;;;;;;7.78;1.98;;;7.40;99.90;;;;;;5035800;28;20520;-81
2023/10/16 06:44:53;;;;;;;3.95;1.55;;;7.50;99.90;;;;;;5035928;28;20128;-81
2023/10/16 06:47:35;;;;;;;5.65;1.80;;;7.50;99.90;;;;;;5052428;28;20037;-82
2023/10/16 06:50:34;;;;;;;2.38;1.27;;;7.50;99.90;;;;;;5051916;28;20064;-81
2023/10/16 06:53:00;;;;;;;3.40;1.50;;;7.60;99.90;;;;;;5052903;28;20599;-81
2023/10/16 06:55:26;;;;;;;6.40;1.60;;;7.70;99.90;;;;;;5052803;28;20037;-82
2023/10/16 06:57:51;;;;;;;4.90;1.73;;;7.70;99.90;;;;;;5035902;28;20087;-81
2023/10/16 07:00:27;;;;;;;8.50;1.65;;;7.70;99.90;;;;;;5053823;28;20041;-81
2023/10/16 07:02:56;;;;;;;3.83;1.40;;;7.80;99.90;;;;;;5052290;28;20049;-81
2023/10/16 07:05:42;;;;;;;5.65;1.58;;;7.90;99.90;;;;;;5052500;28;20535;-82
2023/10/16 07:08:17;;;;;;;18.52;1.90;;;7.90;99.90;;;;;;5051846;28;20041;-81
2023/10/16 07:10:50;;;;;;;5.95;1.58;;;7.90;99.90;;;;;;5051675;28;20045;-81
2023/10/16 07:13:26;;;;;;;7.22;1.70;;;7.90;99.90;;;;;;5052102;28;20554;-81
2023/10/16 07:16:03;;;;;;;4.05;1.52;;;7.90;99.90;;;;;;5052137;28;20569;-81
2023/10/16 07:18:33;;;;;;;5.75;1.52;;;7.90;99.90;;;;;;5052923;28;20412;-81
2023/10/16 07:21:00;;;;;;;5.60;1.42;;;8.00;99.90;;;;;;5053849;28;20041;-81
2023/10/16 07:23:29;;;;;;;8.32;1.83;;;8.00;99.90;;;;;;5053066;28;20048;-82
2023/10/16 07:25:57;;;;;;;3.92;1.30;;;8.10;99.90;;;;;;5051951;28;20516;-82
2023/10/16 07:28:25;;;;;;;4.97;1.60;;;8.10;99.90;;;;;;5051503;28;20513;-82
2023/10/16 07:30:51;;;;;;;4.82;1.90;;;8.10;99.90;;;;;;5052563;28;20044;-82
2023/10/16 07:33:20;;;;;;;5.80;1.67;;;8.10;99.90;;;;;;5053179;28;20500;-82
2023/10/16 07:35:47;;;;;;;6.65;1.85;;;8.10;99.90;;;;;;5051711;28;20060;-81
2023/10/16 07:38:21;;;;;;;3.28;1.60;;;8.20;99.90;;;;;;5052005;28;20032;-82
2023/10/16 07:40:55;;;;;;;9.52;1.80;;;8.20;99.90;;;;;;5051508;28;20037;-81
2023/10/16 07:43:28;;;;;;;5.10;1.40;;;8.40;99.90;;;;;;5035037;28;20041;-82
2023/10/16 07:46:16;;;;;;;4.28;1.40;;;8.40;99.90;;;;;;5035203;28;20061;-82
2023/10/16 07:48:50;;;;;;;5.15;1.73;;;8.50;99.90;;;;;;5051505;28;20044;-83
2023/10/16 07:51:16;;;;;;;3.78;1.48;;;8.70;99.90;;;;;;5052859;28;20037;-82
2023/10/16 07:53:42;;;;;;;5.13;1.70;;;8.80;99.90;;;;;;5051870;28;20467;-82
2023/10/16 07:58:54;;;;;;;7.57;1.73;;;9.10;99.90;;;;;;5053963;28;20044;-83
2023/10/16 08:01:32;;;;;;;3.45;1.70;;;9.10;99.90;;;;;;5051563;28;20377;-82
2023/10/16 08:03:58;;;;;;;5.07;1.55;;;9.20;99.90;;;;;;5051567;28;20037;-82
2023/10/16 08:06:25;;;;;;;4.53;1.92;;;9.20;99.90;;;;;;5051665;28;20076;-81
2023/10/16 08:09:48;;;;;;;5.22;1.67;;;9.20;99.90;;;;;;5051028;28;20064;-81
2023/10/16 08:11:42;;;;;;;6.43;1.60;;;9.20;99.90;;;;;;5051151;28;20041;-83
2023/10/16 08:14:08;;;;;;;5.10;1.65;;;9.30;99.90;;;;;;5051630;28;20090;-82
2023/10/16 08:16:34;;;;;;;6.07;1.58;;;9.30;99.90;;;;;;5051191;28;20052;-82
2023/10/16 08:19:00;;;;;;;5.88;1.48;;;9.30;99.90;;;;;;5053801;28;20405;-82
2023/10/16 08:21:26;;;;;;;4.32;1.23;;;9.30;99.90;;;;;;5057924;28;20037;-82
2023/10/16 08:23:53;;;;;;;5.25;1.40;;;9.40;99.90;;;;;;5035753;28;20555;-82
2023/10/16 08:26:28;;;;;;;3.65;1.60;;;9.50;99.90;;;;;;5051114;28;20112;-82
2023/10/16 08:29:11;;;;;;;4.25;1.30;;;9.60;99.90;;;;;;5050527;28;20060;-82
2023/10/16 08:31:41;;;;;;;7.07;1.90;;;9.70;99.90;;;;;;5050872;28;20037;-82
2023/10/16 08:34:08;;;;;;;2.63;1.27;;;9.70;99.90;;;;;;5051827;28;20033;-82
2023/10/16 08:36:34;;;;;;;5.53;1.45;;;9.70;99.90;;;;;;5050509;28;20059;-82
2023/10/16 08:39:08;;;;;;;7.00;1.77;;;9.80;99.90;;;;;;5052484;28;20104;-82
2023/10/16 08:42:01;;;;;;;7.88;1.70;;;9.90;99.90;;;;;;5033964;28;20049;-82
2023/10/16 08:44:28;;;;;;;3.63;1.45;;;9.90;99.90;;;;;;5049965;28;20098;-82
2023/10/16 08:49:24;;;;;;;8.77;2.10;;;10.10;99.90;;;;;;5051069;28;20464;-82
2023/10/16 08:51:53;;;;;;;7.70;1.67;;;10.10;99.90;;;;;;5052521;28;20443;-82
2023/10/16 08:57:07;;;;;;;6.03;1.58;;;10.20;99.90;;;;;;5051431;28;20049;-82
2023/10/16 08:59:34;;;;;;;4.25;1.80;;;10.10;99.90;;;;;;5051555;28;20064;-82
2023/10/16 09:02:01;;;;;;;5.97;1.60;;;10.10;99.90;;;;;;5051137;28;20077;-82
2023/10/16 09:04:27;;;;;;;4.75;1.40;;;10.10;99.90;;;;;;5051895;28;20400;-81
2023/10/16 09:06:54;;;;;;;6.20;1.40;;;10.20;99.90;;;;;;5051859;28;20041;-82
2023/10/16 09:09:20;;;;;;;7.65;1.55;;;10.30;99.90;;;;;;5036157;28;20048;-82
2023/10/16 09:11:49;;;;;;;4.05;1.50;;;10.50;99.90;;;;;;5051175;28;20044;-82
2023/10/16 09:14:17;;;;;;;5.20;1.42;;;10.60;99.90;;;;;;5034070;28;20040;-82
2023/10/16 09:16:51;;;;;;;5.00;1.20;;;10.60;99.90;;;;;;5051078;28;20075;-82
2023/10/16 09:19:18;;;;;;;4.57;1.15;;;10.60;99.90;;;;;;5050752;28;20090;-83
2023/10/16 09:21:44;;;;;;;5.60;1.10;;;10.70;99.90;;;;;;5050389;28;20041;-82
2023/10/16 09:24:14;;;;;;;3.20;1.00;;;10.60;99.90;;;;;;5053100;28;20029;-83
2023/10/16 09:26:44;;;;;;;5.55;1.15;;;10.60;99.90;;;;;;5038141;28;20403;-82
2023/10/16 09:29:20;;;;;;;6.40;1.73;;;10.60;99.90;;;;;;5053861;28;20112;-82
2023/10/16 09:31:45;;;;;;;5.55;1.50;;;10.60;99.90;;;;;;5054081;28;20051;-83
2023/10/16 09:34:18;;;;;;;3.38;1.08;;;10.60;99.90;;;;;;5054008;28;20494;-82
2023/10/16 09:39:37;;;;;;;5.80;1.17;;;10.60;99.90;;;;;;5053407;28;20041;-83
2023/10/16 09:42:12;;;;;;;2.65;0.88;;;10.60;99.90;;;;;;5053297;28;20412;-83
2023/10/16 09:44:39;;;;;;;8.07;1.35;;;10.70;99.90;;;;;;5054325;28;20120;-82
2023/10/16 09:47:30;;;;;;;7.43;1.52;;;10.70;99.90;;;;;;5053641;28;20079;-82
2023/10/16 09:50:00;;;;;;;5.00;1.45;;;10.70;99.90;;;;;;5053753;28;20378;-83
2023/10/16 09:52:30;;;;;;;6.57;1.23;;;10.70;99.90;;;;;;5053372;28;20040;-83
2023/10/16 09:54:58;;;;;;;5.38;1.20;;;10.80;99.90;;;;;;5054125;28;20055;-82
2023/10/16 09:57:27;;;;;;;6.28;1.30;;;10.70;99.90;;;;;;5053598;28;20062;-82
2023/10/16 09:59:54;;;;;;;6.22;1.25;;;10.80;99.90;;;;;;5053097;28;20039;-82
2023/10/16 10:02:25;;;;;;;4.93;1.20;;;10.80;99.90;;;;;;5054237;28;20045;-83
2023/10/16 10:04:59;;;;;;;6.07;1.35;;;10.80;99.90;;;;;;5053753;28;20036;-82
2023/10/16 10:07:36;;;;;;;3.83;1.13;;;10.90;99.90;;;;;;5053869;28;20069;-83
2023/10/16 10:12:56;;;;;;;5.22;1.23;;;11.10;99.90;;;;;;5032388;28;20045;-82
2023/10/16 10:15:29;;;;;;;5.03;0.90;;;11.10;99.90;;;;;;5038503;28;20029;-81
2023/10/16 10:17:56;;;;;;;5.88;0.95;;;11.10;99.90;;;;;;5033557;28;20034;-82
2023/10/16 10:20:39;;;;;;;2.38;0.80;;;11.10;99.90;;;;;;5052741;28;20040;-82
2023/10/16 10:23:06;;;;;;;4.22;0.90;;;11.10;99.90;;;;;;5037816;28;20419;-81
2023/10/16 10:25:36;;;;;;;4.90;0.93;;;11.10;99.90;;;;;;5053955;28;20111;-82
2023/10/16 10:28:22;;;;;;;6.45;1.42;;;11.20;99.90;;;;;;5036573;28;20037;-81
2023/10/16 10:30:50;;;;;;;5.63;0.93;;;11.30;99.90;;;;;;5053482;28;20068;-81
2023/10/16 10:33:37;;;;;;;3.42;0.80;;;11.40;99.90;;;;;;5053235;28;20037;-82
2023/10/16 10:36:34;;;;;;;2.50;0.90;;;11.50;99.90;;;;;;5053184;28;20116;-81
2023/10/16 10:39:22;;;;;;;3.70;0.90;;;11.60;99.90;;;;;;5036252;28;20110;-81
2023/10/16 10:41:54;;;;;;;5.05;0.77;;;11.70;99.90;;;;;;5052766;28;20037;-81
2023/10/16 10:44:29;;;;;;;3.53;0.70;;;11.80;99.90;;;;;;5036865;28;20512;-82
2023/10/16 10:46:55;;;;;;;4.45;0.50;;;11.80;99.90;;;;;;5053165;28;20037;-81
2023/10/16 10:49:34;;;;;;;3.88;0.80;;;11.90;99.90;;;;;;5052868;28;20519;-81
2023/10/16 10:52:07;;;;;;;3.88;1.10;;;11.80;99.90;;;;;;5053756;28;20040;-81
2023/10/16 10:54:34;;;;;;;5.18;1.00;;;11.80;99.90;;;;;;5054084;28;20041;-82
2023/10/16 10:57:07;;;;;;;3.53;0.73;;;11.70;99.90;;;;;;5036636;28;20036;-80
2023/10/16 10:59:40;;;;;;;2.90;0.75;;;11.60;99.90;;;;;;5053352;28;20036;-81
2023/10/16 11:04:42;;;;;;;2.97;0.90;;;11.60;99.90;;;;;;5054699;28;20076;-81
2023/10/16 11:07:23;;;;;;;4.25;1.10;;;11.70;99.90;;;;;;5053343;28;20053;-81
2023/10/16 11:09:52;;;;;;;6.22;1.13;;;11.80;99.90;;;;;;5054959;28;20045;-80
2023/10/16 11:12:24;;;;;;;5.00;1.10;;;12.00;99.90;;;;;;5054886;28;20037;-80
2023/10/16 11:14:51;;;;;;;4.15;1.10;;;12.10;99.90;;;;;;5055054;28;20473;-80
2023/10/16 11:17:37;;;;;;;4.63;0.68;;;12.20;99.90;;;;;;5057589;28;20044;-80
2023/10/16 11:22:45;;;;;;;2.90;0.70;;;11.90;99.90;;;;;;5054343;28;20083;-81
2023/10/16 11:25:13;;;;;;;5.95;0.85;;;11.80;99.90;;;;;;5054463;28;20074;-81
2023/10/16 11:27:53;;;;;;;3.33;0.88;;;11.60;99.90;;;;;;5052594;28;20385;-82
2023/10/16 11:30:19;;;;;;;4.82;1.17;;;11.50;99.90;;;;;;5052249;28;20040;-81
2023/10/16 11:32:49;;;;;;;2.67;0.93;;;11.50;99.90;;;;;;5054899;28;20068;-81
2023/10/16 11:35:17;;;;;;;5.45;1.08;;;11.60;99.90;;;;;;5053163;28;20467;-81
2023/10/16 11:37:44;;;;;;;4.72;1.10;;;11.60;99.90;;;;;;5052611;28;20047;-81
2023/10/16 11:40:31;;;;;;;3.28;1.05;;;11.80;99.90;;;;;;5052394;28;20048;-81
2023/10/16 11:42:58;;;;;;;2.17;0.90;;;11.90;99.90;;;;;;5053306;28;20049;-81
2023/10/16 11:45:30;;;;;;;4.55;0.75;;;12.00;99.90;;;;;;5053066;28;20567;-80
2023/10/16 11:48:42;;;;;;;2.45;0.90;;;12.00;99.90;;;;;;5053218;28;20040;-81
2023/10/16 11:50:44;;;;;;;4.32;1.00;;;12.00;99.90;;;;;;5052544;28;20405;-81
2023/10/16 11:53:10;;;;;;;2.13;0.75;;;12.10;99.90;;;;;;5035967;28;20037;-81
2023/10/16 11:55:39;;;;;;;7.25;1.08;;;12.10;99.90;;;;;;5053029;28;20044;-81
2023/10/16 11:58:08;;;;;;;3.28;0.63;;;12.10;99.90;;;;;;5053160;28;20072;-81
2023/10/16 12:00:35;;;;;;;3.30;0.68;;;12.20;99.90;;;;;;5053329;28;20055;-81
2023/10/16 12:03:07;;;;;;;2.90;0.70;;;12.30;99.90;;;;;;5052781;28;20049;-81
2023/10/16 12:05:34;;;;;;;4.35;0.85;;;12.40;99.90;;;;;;5054505;28;20063;-81
2023/10/16 12:08:02;;;;;;;3.50;1.02;;;12.40;99.90;;;;;;5054859;28;20122;-81
2023/10/16 12:10:29;;;;;;;4.13;0.88;;;12.60;99.90;;;;;;5052679;28;20060;-81
2023/10/16 12:12:55;;;;;;;4.38;0.68;;;12.70;99.90;;;;;;5038310;28;20063;-81
2023/10/16 12:15:22;;;;;;;5.28;0.93;;;12.80;99.90;;;;;;5059145;28;20029;-80
2023/10/16 12:17:48;;;;;;;3.92;0.90;;;12.70;99.90;;;;;;5054445;28;20443;-80
2023/10/16 12:20:16;;;;;;;7.25;0.88;;;12.70;99.90;;;;;;5054797;28;20048;-80
2023/10/16 12:22:43;;;;;;;3.63;0.85;;;12.70;99.90;;;;;;5054360;28;20068;-80
2023/10/16 12:25:10;;;;;;;4.35;0.80;;;12.70;99.90;;;;;;5057044;28;20036;-80
2023/10/16 12:27:38;;;;;;;4.47;1.00;;;12.70;99.90;;;;;;5059825;28;20137;-79
2023/10/16 12:30:05;;;;;;;3.65;0.73;;;12.70;99.90;;;;;;5058352;28;20037;-80
2023/10/16 12:32:32;;;;;;;4.45;0.90;;;12.60;99.90;;;;;;5056220;28;20037;-80
2023/10/16 12:35:00;;;;;;;4.40;0.90;;;12.50;99.90;;;;;;5055285;28;20048;-80
2023/10/16 12:37:27;;;;;;;4.63;0.90;;;12.60;99.90;;;;;;5056586;28;20079;-79
2023/10/16 12:39:54;;;;;;;2.85;0.80;;;12.50;99.90;;;;;;5052680;28;20524;-80
2023/10/16 12:42:20;;;;;;;4.78;0.75;;;12.60;99.90;;;;;;5053685;28;20051;-80
2023/10/16 12:44:46;;;;;;;3.25;1.08;;;12.50;99.90;;;;;;5052883;28;20500;-80
2023/10/16 12:47:14;;;;;;;8.02;0.90;;;12.60;99.90;;;;;;5052530;28;20116;-80
2023/10/16 12:49:40;;;;;;;7.57;1.38;;;12.60;99.90;;;;;;5056073;28;20033;-80
2023/10/16 12:52:07;;;;;;;5.68;0.98;;;12.60;99.90;;;;;;5057875;28;20582;-80
2023/10/16 12:54:32;;;;;;;7.85;1.20;;;12.70;99.90;;;;;;5054281;28;20044;-79
2023/10/16 12:56:59;;;;;;;2.83;0.70;;;12.70;99.90;;;;;;5054714;28;20453;-80
2023/10/16 12:59:28;;;;;;;3.78;0.98;;;12.70;99.90;;;;;;5059459;28;20045;-80
2023/10/16 13:01:53;;;;;;;8.60;1.40;;;12.80;99.90;;;;;;5042444;28;20051;-80
2023/10/16 13:04:19;;;;;;;6.10;1.15;;;12.80;99.90;;;;;;5056495;28;20112;-79
2023/10/16 13:06:45;;;;;;;5.13;1.40;;;12.80;99.90;;;;;;5057844;28;20072;-80
2023/10/16 13:09:16;;;;;;;6.55;1.15;;;12.90;99.90;;;;;;5056871;28;20106;-80
2023/10/16 13:11:42;;;;;;;6.15;1.17;;;12.90;99.90;;;;;;5057657;28;20512;-80
2023/10/16 13:14:11;;;;;;;5.78;1.08;;;13.00;99.90;;;;;;5058537;28;20546;-80
2023/10/16 13:16:37;;;;;;;9.05;1.20;;;12.90;99.90;;;;;;5040479;28;20033;-80
2023/10/16 13:19:03;;;;;;;3.78;0.88;;;12.90;99.90;;;;;;5059077;28;20049;-80
2023/10/16 13:21:38;;;;;;;3.45;0.80;;;13.00;99.90;;;;;;5055761;28;20048;-80
2023/10/16 13:24:12;;;;;;;3.42;0.88;;;12.90;99.90;;;;;;5056718;28;20055;-80
2023/10/16 13:26:38;;;;;;;3.92;0.70;;;12.90;99.90;;;;;;5056343;28;20131;-81
2023/10/16 13:29:07;;;;;;;9.98;0.90;;;12.90;99.90;;;;;;5055601;28;20044;-80
2023/10/16 13:31:40;;;;;;;5.07;0.95;;;12.90;99.90;;;;;;5056179;28;20040;-80
2023/10/16 13:34:13;;;;;;;3.38;0.85;;;13.00;99.90;;;;;;5040209;28;20057;-80
2023/10/16 13:36:42;;;;;;;4.22;0.90;;;12.90;99.90;;;;;;5055975;28;20037;-80
2023/10/16 13:39:10;;;;;;;8.05;1.15;;;12.90;99.90;;;;;;5040244;28;20041;-79
2023/10/16 13:41:50;;;;;;;3.35;0.85;;;12.90;99.90;;;;;;5056188;28;20044;-80
2023/10/16 13:44:19;;;;;;;5.88;0.85;;;12.90;99.90;;;;;;5055893;28;20043;-80
2023/10/16 13:46:46;;;;;;;4.97;0.77;;;12.90;99.90;;;;;;5055949;28;20047;-78
2023/10/16 13:49:14;;;;;;;4.07;0.90;;;12.90;99.90;;;;;;5057133;28;20040;-80
2023/10/16 13:51:40;;;;;;;4.05;1.10;;;12.80;99.90;;;;;;5055792;28;20377;-80
2023/10/16 13:54:11;;;;;;;6.13;1.10;;;12.80;99.90;;;;;;5055493;28;20041;-80
2023/10/16 13:56:46;;;;;;;5.13;0.75;;;12.90;99.90;;;;;;5056730;28;20439;-79
2023/10/16 13:59:18;;;;;;;6.15;0.90;;;12.90;99.90;;;;;;5038559;28;20123;-80
2023/10/16 14:01:43;;;;;;;5.35;0.85;;;12.80;99.90;;;;;;5055429;28;20041;-80
2023/10/16 14:04:16;;;;;;;7.20;1.00;;;12.90;99.90;;;;;;5056127;28;20067;-80
2023/10/16 14:06:51;;;;;;;5.28;1.13;;;12.90;99.90;;;;;;5056521;28;20036;-80
2023/10/16 14:09:29;;;;;;;4.60;0.93;;;13.00;99.90;;;;;;5055130;28;20103;-80
2023/10/16 14:11:58;;;;;;;6.72;0.88;;;12.90;99.90;;;;;;5041088;28;20048;-80
2023/10/16 14:14:26;;;;;;;4.50;0.70;;;12.90;99.90;;;;;;5040545;28;20029;-80
2023/10/16 14:16:54;;;;;;;3.90;0.80;;;13.00;99.90;;;;;;5057447;28;20041;-80
2023/10/16 14:19:28;;;;;;;5.47;0.90;;;13.00;99.90;;;;;;5055746;28;20066;-78
2023/10/16 14:21:55;;;;;;;6.22;1.30;;;13.00;99.90;;;;;;5055562;28;20037;-80
2023/10/16 14:24:26;;;;;;;2.95;0.68;;;13.00;99.90;;;;;;5054839;28;20043;-80
2023/10/16 14:26:54;;;;;;;10.00;1.13;;;13.00;99.90;;;;;;5055360;28;20083;-80
2023/10/16 14:29:21;;;;;;;5.80;0.85;;;13.10;99.90;;;;;;5054602;28;20063;-80
2023/10/16 14:31:51;;;;;;;3.50;0.77;;;13.10;99.90;;;;;;5054997;28;20048;-80
2023/10/16 14:34:23;;;;;;;3.40;0.80;;;13.10;99.90;;;;;;5039252;28;20049;-80
2023/10/16 14:36:50;;;;;;;5.03;1.13;;;13.10;99.90;;;;;;5038486;28;20036;-79
2023/10/16 14:39:17;;;;;;;3.70;1.00;;;13.00;99.90;;;;;;5057673;28;20037;-79
2023/10/16 14:41:43;;;;;;;4.00;1.13;;;13.00;99.90;;;;;;5053432;28;20456;-80
2023/10/16 14:44:09;;;;;;;3.97;0.88;;;13.00;99.90;;;;;;5038231;28;20037;-79
2023/10/16 14:46:38;;;;;;;3.75;0.73;;;12.90;99.90;;;;;;5055055;28;20037;-79
2023/10/16 14:49:08;;;;;;;5.35;1.17;;;12.90;99.90;;;;;;5054955;28;20044;-80
2023/10/16 14:51:35;;;;;;;3.78;0.80;;;12.80;99.90;;;;;;5058641;28;20045;-80
2023/10/16 14:54:00;;;;;;;4.50;0.55;;;12.80;99.90;;;;;;5058327;28;20040;-79
2023/10/16 14:56:26;;;;;;;4.70;0.80;;;12.80;99.90;;;;;;5057384;28;20037;-79